sensor_id;sensor_type;location;lat;lon;timestamp;P1;durP1;ratioP1;P2;durP2;ratioP2
2564;SDS011;1292;48.020;7.822;2023-05-14T05:46:09;5.30;;;4.83;;
2564;SDS011;1292;48.020;7.822;2023-05-14T05:48:35;6.30;;;5.70;;
2564;SDS011;1292;48.020;7.822;2023-05-14T05:51:02;6.60;;;6.00;;
2564;SDS011;1292;48.020;7.822;2023-05-14T05:53:29;7.27;;;5.67;;
2564;SDS011;1292;48.020;7.822;2023-05-14T05:55:56;6.57;;;5.97;;
2564;SDS011;1292;48.020;7.822;2023-05-14T05:58:23;5.80;;;5.20;;
2564;SDS011;1292;48.020;7.822;2023-05-14T06:00:50;5.43;;;5.03;;
2564;SDS011;1292;48.020;7.822;2023-05-14T06:03:18;6.30;;;5.50;;
2564;SDS011;1292;48.020;7.822;2023-05-14T06:05:46;6.83;;;6.03;;
2564;SDS011;1292;48.020;7.822;2023-05-14T06:08:12;7.30;;;6.60;;
2564;SDS011;1292;48.020;7.822;2023-05-14T06:10:40;6.70;;;6.10;;
2564;SDS011;1292;48.020;7.822;2023-05-14T06:13:06;8.60;;;7.70;;
2564;SDS011;1292;48.020;7.822;2023-05-14T06:15:33;8.70;;;7.90;;
2564;SDS011;1292;48.020;7.822;2023-05-14T06:18:00;9.40;;;8.47;;
2564;SDS011;1292;48.020;7.822;2023-05-14T06:20:28;8.23;;;7.43;;
2564;SDS011;1292;48.020;7.822;2023-05-14T06:22:55;7.40;;;6.70;;
2564;SDS011;1292;48.020;7.822;2023-05-14T06:25:22;7.90;;;7.20;;
2564;SDS011;1292;48.020;7.822;2023-05-14T06:27:49;10.00;;;9.10;;
2564;SDS011;1292;48.020;7.822;2023-05-14T06:30:15;10.90;;;9.90;;
2564;SDS011;1292;48.020;7.822;2023-05-14T06:32:42;9.90;;;8.90;;
2564;SDS011;1292;48.020;7.822;2023-05-14T06:35:09;7.77;;;7.07;;
2564;SDS011;1292;48.020;7.822;2023-05-14T06:37:37;7.90;;;7.20;;
2564;SDS011;1292;48.020;7.822;2023-05-14T06:40:05;7.03;;;6.40;;
2564;SDS011;1292;48.020;7.822;2023-05-14T06:42:32;7.40;;;6.80;;
2564;SDS011;1292;48.020;7.822;2023-05-14T06:44:59;6.90;;;6.40;;
2564;SDS011;1292;48.020;7.822;2023-05-14T06:47:26;8.60;;;7.80;;
2564;SDS011;1292;48.020;7.822;2023-05-14T06:49:53;7.67;;;6.97;;
2564;SDS011;1292;48.020;7.822;2023-05-14T06:52:22;8.10;;;7.40;;
2564;SDS011;1292;48.020;7.822;2023-05-14T06:54:50;9.47;;;7.83;;
2564;SDS011;1292;48.020;7.822;2023-05-14T06:57:18;9.37;;;8.53;;
2564;SDS011;1292;48.020;7.822;2023-05-14T06:59:46;10.33;;;8.50;;
2564;SDS011;1292;48.020;7.822;2023-05-14T07:02:12;9.43;;;8.27;;
2564;SDS011;1292;48.020;7.822;2023-05-14T07:04:39;9.00;;;8.03;;
2564;SDS011;1292;48.020;7.822;2023-05-14T07:07:06;8.83;;;7.60;;
2564;SDS011;1292;48.020;7.822;2023-05-14T07:09:34;8.20;;;7.40;;
2564;SDS011;1292;48.020;7.822;2023-05-14T07:12:03;8.73;;;7.93;;
2564;SDS011;1292;48.020;7.822;2023-05-14T07:14:30;9.70;;;8.70;;
2564;SDS011;1292;48.020;7.822;2023-05-14T07:16:57;7.73;;;7.03;;
2564;SDS011;1292;48.020;7.822;2023-05-14T07:19:24;9.70;;;8.80;;
2564;SDS011;1292;48.020;7.822;2023-05-14T07:21:52;9.00;;;7.10;;
2564;SDS011;1292;48.020;7.822;2023-05-14T07:24:19;7.93;;;7.13;;
2564;SDS011;1292;48.020;7.822;2023-05-14T07:26:46;8.40;;;7.70;;
2564;SDS011;1292;48.020;7.822;2023-05-14T07:29:14;9.10;;;8.10;;
2564;SDS011;1292;48.020;7.822;2023-05-14T07:31:41;8.07;;;7.27;;
2564;SDS011;1292;48.020;7.822;2023-05-14T07:34:08;7.93;;;7.20;;
2564;SDS011;1292;48.020;7.822;2023-05-14T07:36:35;7.13;;;6.43;;
2564;SDS011;1292;48.020;7.822;2023-05-14T07:39:02;8.33;;;7.60;;
2564;SDS011;1292;48.020;7.822;2023-05-14T07:41:29;7.43;;;6.30;;
2564;SDS011;1292;48.020;7.822;2023-05-14T07:43:55;8.00;;;7.30;;
2564;SDS011;1292;48.020;7.822;2023-05-14T07:46:23;8.00;;;7.30;;
2564;SDS011;1292;48.020;7.822;2023-05-14T07:48:50;9.00;;;6.90;;
2564;SDS011;1292;48.020;7.822;2023-05-14T07:51:17;6.73;;;5.93;;
2564;SDS011;1292;48.020;7.822;2023-05-14T07:53:44;7.80;;;7.20;;
2564;SDS011;1292;48.020;7.822;2023-05-14T07:56:11;7.97;;;7.17;;
2564;SDS011;1292;48.020;7.822;2023-05-14T07:58:37;7.43;;;6.73;;
2564;SDS011;1292;48.020;7.822;2023-05-14T08:01:05;7.07;;;6.47;;
2564;SDS011;1292;48.020;7.822;2023-05-14T08:03:34;7.37;;;6.67;;
2564;SDS011;1292;48.020;7.822;2023-05-14T08:06:01;8.57;;;7.87;;
2564;SDS011;1292;48.020;7.822;2023-05-14T08:08:28;8.10;;;7.40;;
2564;SDS011;1292;48.020;7.822;2023-05-14T08:10:55;7.53;;;6.83;;
2564;SDS011;1292;48.020;7.822;2023-05-14T08:13:22;7.93;;;7.27;;
2564;SDS011;1292;48.020;7.822;2023-05-14T08:15:48;9.67;;;7.00;;
2564;SDS011;1292;48.020;7.822;2023-05-14T08:18:15;7.20;;;6.50;;
2564;SDS011;1292;48.020;7.822;2023-05-14T08:20:43;8.23;;;7.53;;
2564;SDS011;1292;48.020;7.822;2023-05-14T08:23:11;8.00;;;7.30;;
2564;SDS011;1292;48.020;7.822;2023-05-14T08:25:37;8.60;;;7.80;;
2564;SDS011;1292;48.020;7.822;2023-05-14T08:28:04;6.90;;;6.33;;
2564;SDS011;1292;48.020;7.822;2023-05-14T08:30:32;12.20;;;8.83;;
2564;SDS011;1292;48.020;7.822;2023-05-14T08:32:58;9.17;;;8.27;;
2564;SDS011;1292;48.020;7.822;2023-05-14T08:35:25;8.40;;;7.70;;
2564;SDS011;1292;48.020;7.822;2023-05-14T08:37:54;9.27;;;8.47;;
2564;SDS011;1292;48.020;7.822;2023-05-14T08:40:21;9.90;;;9.00;;
2564;SDS011;1292;48.020;7.822;2023-05-14T08:42:48;12.00;;;10.87;;
2564;SDS011;1292;48.020;7.822;2023-05-14T08:45:17;9.93;;;8.93;;
2564;SDS011;1292;48.020;7.822;2023-05-14T08:47:46;9.47;;;8.67;;
2564;SDS011;1292;48.020;7.822;2023-05-14T08:50:14;9.53;;;8.60;;
2564;SDS011;1292;48.020;7.822;2023-05-14T08:52:41;8.47;;;7.80;;
2564;SDS011;1292;48.020;7.822;2023-05-14T08:55:10;10.20;;;9.30;;
2564;SDS011;1292;48.020;7.822;2023-05-14T08:57:37;7.87;;;7.27;;
2564;SDS011;1292;48.020;7.822;2023-05-14T09:00:05;9.03;;;8.20;;
2564;SDS011;1292;48.020;7.822;2023-05-14T09:02:35;9.33;;;8.43;;
2564;SDS011;1292;48.020;7.822;2023-05-14T09:05:04;9.53;;;8.73;;
2564;SDS011;1292;48.020;7.822;2023-05-14T09:07:33;10.63;;;9.63;;
2564;SDS011;1292;48.020;7.822;2023-05-14T09:10:00;9.27;;;8.43;;
2564;SDS011;1292;48.020;7.822;2023-05-14T09:12:29;9.13;;;8.43;;
2564;SDS011;1292;48.020;7.822;2023-05-14T09:14:56;8.60;;;7.80;;
2564;SDS011;1292;48.020;7.822;2023-05-14T09:17:24;8.97;;;8.03;;
2564;SDS011;1292;48.020;7.822;2023-05-14T09:19:52;9.00;;;8.20;;
2564;SDS011;1292;48.020;7.822;2023-05-14T09:22:19;9.03;;;8.20;;
2564;SDS011;1292;48.020;7.822;2023-05-14T09:24:46;8.57;;;7.77;;
2564;SDS011;1292;48.020;7.822;2023-05-14T09:27:29;9.00;;;8.20;;
2564;SDS011;1292;48.020;7.822;2023-05-14T09:30:03;8.57;;;7.77;;
2564;SDS011;1292;48.020;7.822;2023-05-14T09:32:34;8.10;;;7.33;;
2564;SDS011;1292;48.020;7.822;2023-05-14T09:35:12;8.50;;;7.60;;
2564;SDS011;1292;48.020;7.822;2023-05-14T09:37:41;7.70;;;7.10;;
2564;SDS011;1292;48.020;7.822;2023-05-14T09:40:09;7.50;;;6.80;;
2564;SDS011;1292;48.020;7.822;2023-05-14T09:42:37;6.67;;;5.50;;
2564;SDS011;1292;48.020;7.822;2023-05-14T09:45:05;7.40;;;6.70;;
2564;SDS011;1292;48.020;7.822;2023-05-14T09:47:33;5.70;;;5.20;;
2564;SDS011;1292;48.020;7.822;2023-05-14T09:50:00;6.13;;;5.53;;
2564;SDS011;1292;48.020;7.822;2023-05-14T09:52:27;6.17;;;5.50;;
2564;SDS011;1292;48.020;7.822;2023-05-14T09:54:53;6.43;;;5.90;;
2564;SDS011;1292;48.020;7.822;2023-05-14T09:57:20;5.43;;;4.93;;
2564;SDS011;1292;48.020;7.822;2023-05-14T09:59:48;6.17;;;5.67;;
2564;SDS011;1292;48.020;7.822;2023-05-14T10:02:16;5.40;;;5.00;;
2564;SDS011;1292;48.020;7.822;2023-05-14T10:04:48;7.20;;;5.97;;
2564;SDS011;1292;48.020;7.822;2023-05-14T10:07:16;6.60;;;6.00;;
2564;SDS011;1292;48.020;7.822;2023-05-14T10:09:47;5.20;;;4.80;;
2564;SDS011;1292;48.020;7.822;2023-05-14T10:12:15;6.63;;;6.13;;
2564;SDS011;1292;48.020;7.822;2023-05-14T10:14:47;6.50;;;5.90;;
2564;SDS011;1292;48.020;7.822;2023-05-14T10:17:20;5.57;;;5.17;;
2564;SDS011;1292;48.020;7.822;2023-05-14T10:19:49;6.07;;;5.67;;
2564;SDS011;1292;48.020;7.822;2023-05-14T10:22:18;6.13;;;5.63;;
2564;SDS011;1292;48.020;7.822;2023-05-14T10:24:48;5.33;;;4.83;;
2564;SDS011;1292;48.020;7.822;2023-05-14T10:27:16;5.13;;;4.77;;
2564;SDS011;1292;48.020;7.822;2023-05-14T10:29:47;6.00;;;5.50;;
2564;SDS011;1292;48.020;7.822;2023-05-14T10:32:20;5.77;;;5.27;;
2564;SDS011;1292;48.020;7.822;2023-05-14T10:34:48;5.43;;;4.93;;
2564;SDS011;1292;48.020;7.822;2023-05-14T10:37:16;7.40;;;5.80;;
2564;SDS011;1292;48.020;7.822;2023-05-14T10:39:44;5.30;;;4.80;;
2564;SDS011;1292;48.020;7.822;2023-05-14T10:42:12;5.20;;;4.80;;
2564;SDS011;1292;48.020;7.822;2023-05-14T10:44:45;4.30;;;4.00;;
2564;SDS011;1292;48.020;7.822;2023-05-14T10:47:15;5.13;;;4.73;;
2564;SDS011;1292;48.020;7.822;2023-05-14T10:49:43;6.03;;;5.43;;
2564;SDS011;1292;48.020;7.822;2023-05-14T10:52:14;5.97;;;5.47;;
2564;SDS011;1292;48.020;7.822;2023-05-14T10:54:44;8.50;;;5.50;;
2564;SDS011;1292;48.020;7.822;2023-05-14T10:57:14;5.43;;;5.03;;
2564;SDS011;1292;48.020;7.822;2023-05-14T10:59:43;6.57;;;5.03;;
2564;SDS011;1292;48.020;7.822;2023-05-14T11:02:19;7.53;;;5.50;;
2564;SDS011;1292;48.020;7.822;2023-05-14T11:04:54;4.73;;;4.43;;
2564;SDS011;1292;48.020;7.822;2023-05-14T11:07:23;4.50;;;4.20;;
2564;SDS011;1292;48.020;7.822;2023-05-14T11:09:53;4.40;;;4.10;;
2564;SDS011;1292;48.020;7.822;2023-05-14T11:12:26;5.07;;;4.60;;
2564;SDS011;1292;48.020;7.822;2023-05-14T11:14:53;5.37;;;4.67;;
2564;SDS011;1292;48.020;7.822;2023-05-14T11:17:24;4.23;;;3.90;;
2564;SDS011;1292;48.020;7.822;2023-05-14T11:19:51;4.00;;;3.70;;
2564;SDS011;1292;48.020;7.822;2023-05-14T11:22:18;4.17;;;3.87;;
2564;SDS011;1292;48.020;7.822;2023-05-14T11:24:45;4.30;;;3.90;;
2564;SDS011;1292;48.020;7.822;2023-05-14T11:27:12;5.10;;;4.30;;
2564;SDS011;1292;48.020;7.822;2023-05-14T11:29:41;3.70;;;3.40;;
2564;SDS011;1292;48.020;7.822;2023-05-14T11:32:09;4.30;;;3.90;;
2564;SDS011;1292;48.020;7.822;2023-05-14T11:34:37;3.53;;;3.33;;
2564;SDS011;1292;48.020;7.822;2023-05-14T11:37:05;4.27;;;3.87;;
2564;SDS011;1292;48.020;7.822;2023-05-14T11:39:33;4.60;;;4.07;;
2564;SDS011;1292;48.020;7.822;2023-05-14T11:42:01;3.63;;;3.33;;
2564;SDS011;1292;48.020;7.822;2023-05-14T11:44:30;4.37;;;4.07;;
2564;SDS011;1292;48.020;7.822;2023-05-14T11:46:57;3.80;;;3.50;;
2564;SDS011;1292;48.020;7.822;2023-05-14T11:49:25;5.13;;;4.67;;
2564;SDS011;1292;48.020;7.822;2023-05-14T11:51:58;4.60;;;4.20;;
2564;SDS011;1292;48.020;7.822;2023-05-14T11:54:26;4.13;;;3.83;;
2564;SDS011;1292;48.020;7.822;2023-05-14T11:56:53;4.50;;;4.10;;
2564;SDS011;1292;48.020;7.822;2023-05-14T11:59:21;4.23;;;3.93;;
2564;SDS011;1292;48.020;7.822;2023-05-14T12:01:50;4.80;;;4.33;;
2564;SDS011;1292;48.020;7.822;2023-05-14T12:04:17;4.83;;;4.43;;
2564;SDS011;1292;48.020;7.822;2023-05-14T12:06:46;4.10;;;3.80;;
2564;SDS011;1292;48.020;7.822;2023-05-14T12:09:15;4.53;;;4.23;;
2564;SDS011;1292;48.020;7.822;2023-05-14T12:11:43;4.80;;;4.40;;
2564;SDS011;1292;48.020;7.822;2023-05-14T12:14:10;3.50;;;3.30;;
2564;SDS011;1292;48.020;7.822;2023-05-14T12:16:39;4.10;;;3.70;;
2564;SDS011;1292;48.020;7.822;2023-05-14T12:19:07;3.70;;;3.40;;
2564;SDS011;1292;48.020;7.822;2023-05-14T12:21:36;3.40;;;3.00;;
2564;SDS011;1292;48.020;7.822;2023-05-14T12:24:03;3.50;;;3.20;;
2564;SDS011;1292;48.020;7.822;2023-05-14T12:26:35;3.53;;;3.30;;
2564;SDS011;1292;48.020;7.822;2023-05-14T12:29:03;5.27;;;3.33;;
2564;SDS011;1292;48.020;7.822;2023-05-14T12:31:31;3.23;;;3.03;;
2564;SDS011;1292;48.020;7.822;2023-05-14T12:34:00;3.73;;;3.43;;
2564;SDS011;1292;48.020;7.822;2023-05-14T12:36:28;2.80;;;2.60;;
2564;SDS011;1292;48.020;7.822;2023-05-14T12:38:57;3.50;;;3.20;;
2564;SDS011;1292;48.020;7.822;2023-05-14T12:41:25;4.10;;;3.50;;
2564;SDS011;1292;48.020;7.822;2023-05-14T12:43:54;3.10;;;2.80;;
2564;SDS011;1292;48.020;7.822;2023-05-14T12:46:20;4.13;;;2.60;;
2564;SDS011;1292;48.020;7.822;2023-05-14T12:48:48;3.83;;;3.30;;
2564;SDS011;1292;48.020;7.822;2023-05-14T12:51:14;4.40;;;4.10;;
2564;SDS011;1292;48.020;7.822;2023-05-14T12:53:41;3.23;;;3.03;;
2564;SDS011;1292;48.020;7.822;2023-05-14T12:56:08;3.20;;;2.93;;
2564;SDS011;1292;48.020;7.822;2023-05-14T12:58:35;2.40;;;2.20;;
2564;SDS011;1292;48.020;7.822;2023-05-14T13:01:03;2.30;;;2.10;;
2564;SDS011;1292;48.020;7.822;2023-05-14T13:03:30;2.57;;;1.80;;
2564;SDS011;1292;48.020;7.822;2023-05-14T13:05:57;1.60;;;1.50;;
2564;SDS011;1292;48.020;7.822;2023-05-14T13:08:24;1.20;;;1.10;;
2564;SDS011;1292;48.020;7.822;2023-05-14T13:10:51;1.37;;;1.27;;
2564;SDS011;1292;48.020;7.822;2023-05-14T13:13:18;1.73;;;1.63;;
2564;SDS011;1292;48.020;7.822;2023-05-14T13:15:45;1.70;;;1.60;;
2564;SDS011;1292;48.020;7.822;2023-05-14T13:18:14;2.20;;;2.00;;
2564;SDS011;1292;48.020;7.822;2023-05-14T13:20:41;2.47;;;2.27;;
2564;SDS011;1292;48.020;7.822;2023-05-14T13:23:08;2.63;;;2.23;;
2564;SDS011;1292;48.020;7.822;2023-05-14T13:25:35;1.90;;;1.80;;
2564;SDS011;1292;48.020;7.822;2023-05-14T13:28:01;2.30;;;2.10;;
2564;SDS011;1292;48.020;7.822;2023-05-14T13:30:28;2.30;;;2.10;;
2564;SDS011;1292;48.020;7.822;2023-05-14T13:32:56;2.13;;;2.03;;
2564;SDS011;1292;48.020;7.822;2023-05-14T13:35:24;2.47;;;2.23;;
2564;SDS011;1292;48.020;7.822;2023-05-14T13:37:51;2.40;;;2.10;;
2564;SDS011;1292;48.020;7.822;2023-05-14T13:40:18;1.80;;;1.70;;
2564;SDS011;1292;48.020;7.822;2023-05-14T13:42:45;2.13;;;2.00;;
2564;SDS011;1292;48.020;7.822;2023-05-14T13:45:11;1.90;;;1.80;;
2564;SDS011;1292;48.020;7.822;2023-05-14T13:47:38;2.00;;;1.90;;
2564;SDS011;1292;48.020;7.822;2023-05-14T13:50:05;1.73;;;1.63;;
2564;SDS011;1292;48.020;7.822;2023-05-14T13:52:34;2.67;;;2.47;;
2564;SDS011;1292;48.020;7.822;2023-05-14T13:55:02;2.73;;;2.53;;
2564;SDS011;1292;48.020;7.822;2023-05-14T13:57:29;2.77;;;2.20;;
2564;SDS011;1292;48.020;7.822;2023-05-14T13:59:55;3.37;;;3.07;;
2564;SDS011;1292;48.020;7.822;2023-05-14T14:02:22;3.63;;;2.67;;
2564;SDS011;1292;48.020;7.822;2023-05-14T14:04:49;3.00;;;2.80;;
2564;SDS011;1292;48.020;7.822;2023-05-14T14:07:16;3.07;;;2.87;;
2564;SDS011;1292;48.020;7.822;2023-05-14T14:09:44;3.00;;;2.80;;
2564;SDS011;1292;48.020;7.822;2023-05-14T14:12:11;2.73;;;2.53;;
2564;SDS011;1292;48.020;7.822;2023-05-14T14:14:38;2.50;;;2.30;;
2564;SDS011;1292;48.020;7.822;2023-05-14T14:17:05;2.30;;;2.10;;
2564;SDS011;1292;48.020;7.822;2023-05-14T14:19:33;1.97;;;1.87;;
2564;SDS011;1292;48.020;7.822;2023-05-14T14:21:59;3.67;;;3.00;;
2564;SDS011;1292;48.020;7.822;2023-05-14T14:24:26;2.30;;;2.20;;
2564;SDS011;1292;48.020;7.822;2023-05-14T14:26:55;2.20;;;2.10;;
2564;SDS011;1292;48.020;7.822;2023-05-14T14:29:21;2.33;;;2.13;;
2564;SDS011;1292;48.020;7.822;2023-05-14T14:31:48;3.10;;;2.17;;
2564;SDS011;1292;48.020;7.822;2023-05-14T14:34:15;2.17;;;2.07;;
2564;SDS011;1292;48.020;7.822;2023-05-14T14:36:42;2.67;;;2.30;;
2564;SDS011;1292;48.020;7.822;2023-05-14T14:39:08;2.70;;;2.50;;
2564;SDS011;1292;48.020;7.822;2023-05-14T14:41:35;2.17;;;1.97;;
2564;SDS011;1292;48.020;7.822;2023-05-14T14:44:04;1.70;;;1.60;;
2564;SDS011;1292;48.020;7.822;2023-05-14T14:46:30;2.07;;;1.97;;
2564;SDS011;1292;48.020;7.822;2023-05-14T14:48:57;2.30;;;2.00;;
2564;SDS011;1292;48.020;7.822;2023-05-14T14:51:24;2.00;;;1.90;;
2564;SDS011;1292;48.020;7.822;2023-05-14T14:53:51;1.90;;;1.80;;
2564;SDS011;1292;48.020;7.822;2023-05-14T14:56:18;2.23;;;2.13;;
2564;SDS011;1292;48.020;7.822;2023-05-14T14:58:45;1.67;;;1.57;;
2564;SDS011;1292;48.020;7.822;2023-05-14T15:01:14;2.07;;;1.97;;
2564;SDS011;1292;48.020;7.822;2023-05-14T15:03:42;2.40;;;2.00;;
2564;SDS011;1292;48.020;7.822;2023-05-14T15:06:09;2.20;;;2.00;;
2564;SDS011;1292;48.020;7.822;2023-05-14T15:08:37;2.00;;;1.90;;
2564;SDS011;1292;48.020;7.822;2023-05-14T15:11:04;1.77;;;1.63;;
2564;SDS011;1292;48.020;7.822;2023-05-14T15:13:31;2.10;;;2.00;;
2564;SDS011;1292;48.020;7.822;2023-05-14T15:15:58;2.03;;;1.93;;
2564;SDS011;1292;48.020;7.822;2023-05-14T15:18:26;2.20;;;2.00;;
2564;SDS011;1292;48.020;7.822;2023-05-14T15:20:53;2.43;;;2.33;;
2564;SDS011;1292;48.020;7.822;2023-05-14T15:23:20;2.20;;;2.10;;
2564;SDS011;1292;48.020;7.822;2023-05-14T15:25:47;2.30;;;2.10;;
2564;SDS011;1292;48.020;7.822;2023-05-14T15:28:14;2.03;;;1.93;;
2564;SDS011;1292;48.020;7.822;2023-05-14T15:30:41;2.10;;;2.00;;
2564;SDS011;1292;48.020;7.822;2023-05-14T15:33:09;2.27;;;2.00;;
2564;SDS011;1292;48.020;7.822;2023-05-14T15:35:37;2.30;;;2.20;;
2564;SDS011;1292;48.020;7.822;2023-05-14T15:38:04;2.43;;;1.67;;
2564;SDS011;1292;48.020;7.822;2023-05-14T15:40:32;1.40;;;1.30;;
2564;SDS011;1292;48.020;7.822;2023-05-14T15:42:59;1.83;;;1.73;;
2564;SDS011;1292;48.020;7.822;2023-05-14T15:45:26;1.30;;;1.20;;
2564;SDS011;1292;48.020;7.822;2023-05-14T15:47:53;7.73;;;1.47;;
2564;SDS011;1292;48.020;7.822;2023-05-14T15:50:20;1.57;;;1.40;;
2564;SDS011;1292;48.020;7.822;2023-05-14T15:52:48;2.87;;;2.57;;
2564;SDS011;1292;48.020;7.822;2023-05-14T15:55:15;1.80;;;1.70;;
2564;SDS011;1292;48.020;7.822;2023-05-14T15:57:42;1.50;;;1.40;;
2564;SDS011;1292;48.020;7.822;2023-05-14T16:00:09;2.50;;;2.07;;
2564;SDS011;1292;48.020;7.822;2023-05-14T16:02:37;1.70;;;1.60;;
2564;SDS011;1292;48.020;7.822;2023-05-14T16:05:04;1.60;;;1.37;;
2564;SDS011;1292;48.020;7.822;2023-05-14T16:07:32;2.43;;;2.13;;
2564;SDS011;1292;48.020;7.822;2023-05-14T16:10:00;2.50;;;2.30;;
2564;SDS011;1292;48.020;7.822;2023-05-14T16:12:27;3.30;;;3.10;;
2564;SDS011;1292;48.020;7.822;2023-05-14T16:14:54;2.03;;;1.93;;
2564;SDS011;1292;48.020;7.822;2023-05-14T16:17:21;2.60;;;2.17;;
2564;SDS011;1292;48.020;7.822;2023-05-14T16:19:49;4.07;;;1.90;;
2564;SDS011;1292;48.020;7.822;2023-05-14T16:22:18;3.80;;;3.50;;
2564;SDS011;1292;48.020;7.822;2023-05-14T16:24:44;2.60;;;2.40;;
2564;SDS011;1292;48.020;7.822;2023-05-14T16:27:13;2.70;;;2.13;;
2564;SDS011;1292;48.020;7.822;2023-05-14T16:29:39;2.90;;;2.57;;
2564;SDS011;1292;48.020;7.822;2023-05-14T16:32:06;2.23;;;2.07;;
2564;SDS011;1292;48.020;7.822;2023-05-14T16:34:33;3.73;;;3.27;;
2564;SDS011;1292;48.020;7.822;2023-05-14T16:37:00;4.07;;;3.70;;
2564;SDS011;1292;48.020;7.822;2023-05-14T16:39:26;2.87;;;2.67;;
2564;SDS011;1292;48.020;7.822;2023-05-14T16:41:53;2.27;;;2.07;;
2564;SDS011;1292;48.020;7.822;2023-05-14T16:44:21;2.13;;;2.03;;
2564;SDS011;1292;48.020;7.822;2023-05-14T16:46:48;2.33;;;2.23;;
2564;SDS011;1292;48.020;7.822;2023-05-14T16:49:15;2.63;;;2.43;;
2564;SDS011;1292;48.020;7.822;2023-05-14T16:51:46;2.37;;;2.20;;
2564;SDS011;1292;48.020;7.822;2023-05-14T16:54:13;2.70;;;2.50;;
2564;SDS011;1292;48.020;7.822;2023-05-14T16:56:39;3.07;;;2.77;;
2564;SDS011;1292;48.020;7.822;2023-05-14T16:59:11;2.70;;;2.50;;
2564;SDS011;1292;48.020;7.822;2023-05-14T17:01:40;5.23;;;2.80;;
2564;SDS011;1292;48.020;7.822;2023-05-14T17:04:07;3.70;;;3.20;;
2564;SDS011;1292;48.020;7.822;2023-05-14T17:06:34;2.00;;;1.80;;
2564;SDS011;1292;48.020;7.822;2023-05-14T17:09:00;2.20;;;2.00;;
2564;SDS011;1292;48.020;7.822;2023-05-14T17:11:27;2.33;;;2.13;;
2564;SDS011;1292;48.020;7.822;2023-05-14T17:13:54;2.80;;;1.90;;
2564;SDS011;1292;48.020;7.822;2023-05-14T17:16:22;2.70;;;1.90;;
2564;SDS011;1292;48.020;7.822;2023-05-14T17:18:51;1.67;;;1.57;;
2564;SDS011;1292;48.020;7.822;2023-05-14T17:21:18;1.87;;;1.70;;
2564;SDS011;1292;48.020;7.822;2023-05-14T17:23:44;1.90;;;1.80;;
2564;SDS011;1292;48.020;7.822;2023-05-14T17:26:11;2.30;;;2.10;;
2564;SDS011;1292;48.020;7.822;2023-05-14T17:28:38;1.83;;;1.70;;
2564;SDS011;1292;48.020;7.822;2023-05-14T17:31:05;2.13;;;1.93;;
2564;SDS011;1292;48.020;7.822;2023-05-14T17:33:31;2.10;;;2.00;;
2564;SDS011;1292;48.020;7.822;2023-05-14T17:36:00;2.37;;;2.17;;
2564;SDS011;1292;48.020;7.822;2023-05-14T17:38:26;2.13;;;2.03;;
2564;SDS011;1292;48.020;7.822;2023-05-14T17:40:53;2.70;;;2.10;;
2564;SDS011;1292;48.020;7.822;2023-05-14T17:43:20;3.67;;;1.83;;
2564;SDS011;1292;48.020;7.822;2023-05-14T17:45:47;3.10;;;2.70;;
2564;SDS011;1292;48.020;7.822;2023-05-14T17:48:14;3.03;;;2.60;;
2564;SDS011;1292;48.020;7.822;2023-05-14T17:50:40;1.93;;;1.83;;
2564;SDS011;1292;48.020;7.822;2023-05-14T17:53:09;2.60;;;2.20;;
2564;SDS011;1292;48.020;7.822;2023-05-14T17:55:36;2.70;;;2.50;;
2564;SDS011;1292;48.020;7.822;2023-05-14T17:58:07;4.57;;;3.57;;
2564;SDS011;1292;48.020;7.822;2023-05-14T18:00:35;2.37;;;2.20;;
2564;SDS011;1292;48.020;7.822;2023-05-14T18:03:02;3.60;;;2.73;;
2564;SDS011;1292;48.020;7.822;2023-05-14T18:05:29;2.37;;;2.17;;
2564;SDS011;1292;48.020;7.822;2023-05-14T18:07:56;1.97;;;1.87;;
2564;SDS011;1292;48.020;7.822;2023-05-14T18:10:25;2.10;;;2.00;;
2564;SDS011;1292;48.020;7.822;2023-05-14T18:12:53;4.77;;;3.17;;
2564;SDS011;1292;48.020;7.822;2023-05-14T18:15:20;3.57;;;3.27;;
2564;SDS011;1292;48.020;7.822;2023-05-14T18:17:49;3.93;;;3.63;;
2564;SDS011;1292;48.020;7.822;2023-05-14T18:20:16;3.60;;;3.30;;
2564;SDS011;1292;48.020;7.822;2023-05-14T18:22:43;4.17;;;2.97;;
2564;SDS011;1292;48.020;7.822;2023-05-14T18:25:10;3.80;;;3.50;;
2564;SDS011;1292;48.020;7.822;2023-05-14T18:27:39;3.63;;;3.27;;
2564;SDS011;1292;48.020;7.822;2023-05-14T18:30:09;2.93;;;2.73;;
2564;SDS011;1292;48.020;7.822;2023-05-14T18:32:37;2.67;;;2.33;;
2564;SDS011;1292;48.020;7.822;2023-05-14T18:35:04;2.50;;;2.30;;
2564;SDS011;1292;48.020;7.822;2023-05-14T18:37:32;2.60;;;2.40;;
2564;SDS011;1292;48.020;7.822;2023-05-14T18:39:59;3.67;;;2.33;;
2564;SDS011;1292;48.020;7.822;2023-05-14T18:42:26;2.57;;;2.37;;
2564;SDS011;1292;48.020;7.822;2023-05-14T18:44:54;14.97;;;3.10;;
2564;SDS011;1292;48.020;7.822;2023-05-14T18:47:21;2.87;;;2.67;;
2564;SDS011;1292;48.020;7.822;2023-05-14T18:49:48;2.90;;;2.70;;
2564;SDS011;1292;48.020;7.822;2023-05-14T18:52:18;3.63;;;2.20;;
2564;SDS011;1292;48.020;7.822;2023-05-14T18:54:45;3.73;;;3.43;;
2564;SDS011;1292;48.020;7.822;2023-05-14T18:57:12;5.33;;;4.17;;
2564;SDS011;1292;48.020;7.822;2023-05-14T18:59:39;10.10;;;5.77;;
2564;SDS011;1292;48.020;7.822;2023-05-14T19:02:07;4.23;;;3.83;;
2564;SDS011;1292;48.020;7.822;2023-05-14T19:04:34;3.67;;;3.37;;
2564;SDS011;1292;48.020;7.822;2023-05-14T19:07:01;3.47;;;3.17;;
2564;SDS011;1292;48.020;7.822;2023-05-14T19:09:28;7.73;;;3.40;;
2564;SDS011;1292;48.020;7.822;2023-05-14T19:11:54;3.27;;;2.97;;
2564;SDS011;1292;48.020;7.822;2023-05-14T19:14:21;2.87;;;2.67;;
2564;SDS011;1292;48.020;7.822;2023-05-14T19:16:48;2.80;;;2.60;;
2564;SDS011;1292;48.020;7.822;2023-05-14T19:19:16;3.40;;;3.10;;
2564;SDS011;1292;48.020;7.822;2023-05-14T19:21:43;3.23;;;2.93;;
2564;SDS011;1292;48.020;7.822;2023-05-14T19:24:10;7.73;;;4.80;;
2564;SDS011;1292;48.020;7.822;2023-05-14T19:26:37;7.03;;;5.20;;
2564;SDS011;1292;48.020;7.822;2023-05-14T19:29:04;7.90;;;6.10;;
2564;SDS011;1292;48.020;7.822;2023-05-14T19:31:30;7.60;;;5.60;;
2564;SDS011;1292;48.020;7.822;2023-05-14T19:33:57;5.37;;;4.83;;
2564;SDS011;1292;48.020;7.822;2023-05-14T19:36:25;5.50;;;5.00;;
2564;SDS011;1292;48.020;7.822;2023-05-14T19:38:54;3.30;;;3.00;;
2564;SDS011;1292;48.020;7.822;2023-05-14T19:41:21;2.97;;;2.60;;
2564;SDS011;1292;48.020;7.822;2023-05-14T19:43:48;2.43;;;2.23;;
2564;SDS011;1292;48.020;7.822;2023-05-14T19:46:15;2.70;;;2.50;;
2564;SDS011;1292;48.020;7.822;2023-05-14T19:48:41;3.20;;;2.40;;
2564;SDS011;1292;48.020;7.822;2023-05-14T19:51:08;2.30;;;2.10;;
2564;SDS011;1292;48.020;7.822;2023-05-14T19:53:37;3.73;;;2.70;;
2564;SDS011;1292;48.020;7.822;2023-05-14T19:56:04;3.60;;;2.90;;
2564;SDS011;1292;48.020;7.822;2023-05-14T19:58:30;3.37;;;3.07;;
2564;SDS011;1292;48.020;7.822;2023-05-14T20:00:57;3.07;;;2.70;;
2564;SDS011;1292;48.020;7.822;2023-05-14T20:03:24;4.60;;;2.37;;
2564;SDS011;1292;48.020;7.822;2023-05-14T20:05:51;5.33;;;2.30;;
2564;SDS011;1292;48.020;7.822;2023-05-14T20:08:18;4.10;;;2.20;;
2564;SDS011;1292;48.020;7.822;2023-05-14T20:10:47;6.00;;;2.93;;
2564;SDS011;1292;48.020;7.822;2023-05-14T20:13:14;2.63;;;2.40;;
2564;SDS011;1292;48.020;7.822;2023-05-14T20:15:41;2.50;;;2.30;;
2564;SDS011;1292;48.020;7.822;2023-05-14T20:18:08;2.70;;;2.50;;
2564;SDS011;1292;48.020;7.822;2023-05-14T20:20:34;2.30;;;2.10;;
2564;SDS011;1292;48.020;7.822;2023-05-14T20:23:02;2.30;;;2.10;;
2564;SDS011;1292;48.020;7.822;2023-05-14T20:25:29;3.50;;;2.83;;
2564;SDS011;1292;48.020;7.822;2023-05-14T20:27:58;3.13;;;2.80;;
2564;SDS011;1292;48.020;7.822;2023-05-14T20:30:25;3.17;;;2.93;;
2564;SDS011;1292;48.020;7.822;2023-05-14T20:32:52;2.70;;;2.50;;
2564;SDS011;1292;48.020;7.822;2023-05-14T20:35:19;2.80;;;2.60;;
2564;SDS011;1292;48.020;7.822;2023-05-14T20:37:46;2.80;;;2.60;;
2564;SDS011;1292;48.020;7.822;2023-05-14T20:40:14;3.73;;;3.27;;
2564;SDS011;1292;48.020;7.822;2023-05-14T20:42:41;2.60;;;2.40;;
2564;SDS011;1292;48.020;7.822;2023-05-14T20:45:09;2.90;;;2.70;;
2564;SDS011;1292;48.020;7.822;2023-05-14T20:47:36;4.10;;;3.43;;
2564;SDS011;1292;48.020;7.822;2023-05-14T20:50:03;3.50;;;3.20;;
2564;SDS011;1292;48.020;7.822;2023-05-14T20:52:31;3.17;;;2.87;;
2564;SDS011;1292;48.020;7.822;2023-05-14T20:54:58;3.73;;;3.10;;
2564;SDS011;1292;48.020;7.822;2023-05-14T20:57:25;3.87;;;3.57;;
2564;SDS011;1292;48.020;7.822;2023-05-14T20:59:51;3.20;;;2.90;;
2564;SDS011;1292;48.020;7.822;2023-05-14T21:02:20;3.90;;;3.33;;